Current Weather

Chicago/Rockford Intl

Rockford, Illinois (KRFD)

Report from: Monday, June 24, 2024 3:54 PM CDT
Current time: Tuesday, June 25, 2024 3:46 AM CDT

Nearby weather – Weather history – Daily summaries
Weather forecast

Temperature30.0°C (86.0°F)
Heat index31.4°C (88.5°F)
Dew point18.9°C (66.0°F)
Winds 10 kts (5.1 m/s, 11.5 mph) South (190°)
Visibility10 mi. (16.1 km)
Clouds Few clouds 4,500 ft. (1,372 m)
Scattered clouds 10,000 ft. (3,048 m)
Altimeter29.92 in.Hg (1013 mB)
Relative humidity52 %
Density altitude2,038 ft. (621 m)
Sea-level pressure101.3 kPa (1013 mB, 29.90 in.Hg)
Remarks Automated weather observing station with precipitation discriminator
Pressure falling more quickly
Flight conditions Visual Meteorological Conditions
Raw dataKRFD 242054Z 19010KT 10SM FEW045 SCT100 30/19 A2992 RMK AO2 SLP126 T03000189 58017
An unhandled exception has occurred. See browser dev tools for details. Reload 🗙